sensor_id;sensor_type;location;lat;lon;timestamp;P1;durP1;ratioP1;P2;durP2;ratioP2
45686;SDS011;31399;51.176;7.776;2024-03-23T00:53:07;6.00;;;3.17;;
45686;SDS011;31399;51.176;7.776;2024-03-23T00:55:33;6.90;;;2.70;;
45686;SDS011;31399;51.176;7.776;2024-03-23T00:57:59;7.68;;;2.67;;
45686;SDS011;31399;51.176;7.776;2024-03-23T01:00:24;4.80;;;1.70;;
45686;SDS011;31399;51.176;7.776;2024-03-23T01:02:50;8.38;;;2.53;;
45686;SDS011;31399;51.176;7.776;2024-03-23T01:05:15;3.60;;;1.40;;
45686;SDS011;31399;51.176;7.776;2024-03-23T01:07:41;5.45;;;1.60;;
45686;SDS011;31399;51.176;7.776;2024-03-23T01:10:07;4.22;;;1.70;;
45686;SDS011;31399;51.176;7.776;2024-03-23T01:12:33;6.78;;;2.13;;
45686;SDS011;31399;51.176;7.776;2024-03-23T01:14:58;3.20;;;1.50;;
45686;SDS011;31399;51.176;7.776;2024-03-23T01:17:24;3.92;;;1.50;;
45686;SDS011;31399;51.176;7.776;2024-03-23T01:19:50;5.00;;;1.60;;
45686;SDS011;31399;51.176;7.776;2024-03-23T01:22:15;8.65;;;2.20;;
45686;SDS011;31399;51.176;7.776;2024-03-23T01:24:41;7.10;;;1.95;;
45686;SDS011;31399;51.176;7.776;2024-03-23T01:27:06;7.57;;;2.35;;
45686;SDS011;31399;51.176;7.776;2024-03-23T01:29:32;4.30;;;1.63;;
45686;SDS011;31399;51.176;7.776;2024-03-23T01:31:58;4.47;;;2.08;;
45686;SDS011;31399;51.176;7.776;2024-03-23T01:34:23;4.30;;;1.35;;
45686;SDS011;31399;51.176;7.776;2024-03-23T01:36:50;4.20;;;1.60;;
45686;SDS011;31399;51.176;7.776;2024-03-23T01:39:16;4.88;;;1.83;;
45686;SDS011;31399;51.176;7.776;2024-03-23T01:41:41;4.05;;;1.45;;
45686;SDS011;31399;51.176;7.776;2024-03-23T01:44:08;6.43;;;2.63;;
45686;SDS011;31399;51.176;7.776;2024-03-23T01:46:37;5.30;;;1.63;;
45686;SDS011;31399;51.176;7.776;2024-03-23T01:49:04;5.28;;;1.60;;
45686;SDS011;31399;51.176;7.776;2024-03-23T01:51:30;5.22;;;1.30;;
45686;SDS011;31399;51.176;7.776;2024-03-23T01:53:56;5.20;;;1.33;;
45686;SDS011;31399;51.176;7.776;2024-03-23T01:56:22;6.07;;;1.88;;
45686;SDS011;31399;51.176;7.776;2024-03-23T01:58:47;4.82;;;1.63;;
45686;SDS011;31399;51.176;7.776;2024-03-23T02:01:13;5.60;;;1.70;;
45686;SDS011;31399;51.176;7.776;2024-03-23T02:03:39;2.65;;;1.02;;
45686;SDS011;31399;51.176;7.776;2024-03-23T02:06:04;2.53;;;1.13;;
45686;SDS011;31399;51.176;7.776;2024-03-23T02:08:32;4.35;;;1.10;;
45686;SDS011;31399;51.176;7.776;2024-03-23T02:10:58;2.38;;;1.10;;
45686;SDS011;31399;51.176;7.776;2024-03-23T02:13:24;2.45;;;1.08;;
45686;SDS011;31399;51.176;7.776;2024-03-23T02:15:49;6.03;;;1.25;;
45686;SDS011;31399;51.176;7.776;2024-03-23T02:18:15;2.88;;;1.25;;
45686;SDS011;31399;51.176;7.776;2024-03-23T02:20:41;4.45;;;1.33;;
45686;SDS011;31399;51.176;7.776;2024-03-23T02:23:12;2.20;;;1.23;;
45686;SDS011;31399;51.176;7.776;2024-03-23T02:25:39;6.47;;;1.05;;
45686;SDS011;31399;51.176;7.776;2024-03-23T02:28:04;3.80;;;1.63;;
45686;SDS011;31399;51.176;7.776;2024-03-23T02:30:30;5.88;;;1.90;;
45686;SDS011;31399;51.176;7.776;2024-03-23T02:32:56;7.22;;;2.08;;
45686;SDS011;31399;51.176;7.776;2024-03-23T02:35:21;6.40;;;2.00;;
45686;SDS011;31399;51.176;7.776;2024-03-23T02:37:47;8.30;;;2.35;;
45686;SDS011;31399;51.176;7.776;2024-03-23T02:40:16;5.03;;;1.80;;
45686;SDS011;31399;51.176;7.776;2024-03-23T02:42:42;5.07;;;2.10;;
45686;SDS011;31399;51.176;7.776;2024-03-23T02:45:07;7.65;;;2.20;;
45686;SDS011;31399;51.176;7.776;2024-03-23T02:47:33;3.30;;;1.88;;
45686;SDS011;31399;51.176;7.776;2024-03-23T02:49:59;4.72;;;1.58;;
45686;SDS011;31399;51.176;7.776;2024-03-23T02:52:25;3.20;;;1.30;;
45686;SDS011;31399;51.176;7.776;2024-03-23T02:54:50;6.22;;;1.30;;
45686;SDS011;31399;51.176;7.776;2024-03-23T02:57:16;4.82;;;1.50;;
45686;SDS011;31399;51.176;7.776;2024-03-23T02:59:41;7.40;;;1.77;;
45686;SDS011;31399;51.176;7.776;2024-03-23T03:02:07;2.88;;;0.98;;
45686;SDS011;31399;51.176;7.776;2024-03-23T03:04:33;3.65;;;1.10;;
45686;SDS011;31399;51.176;7.776;2024-03-23T03:06:58;4.10;;;1.25;;
45686;SDS011;31399;51.176;7.776;2024-03-23T03:09:24;3.05;;;0.70;;
45686;SDS011;31399;51.176;7.776;2024-03-23T03:11:50;2.85;;;0.88;;
45686;SDS011;31399;51.176;7.776;2024-03-23T03:14:15;9.52;;;1.55;;
45686;SDS011;31399;51.176;7.776;2024-03-23T03:16:41;4.53;;;1.00;;
45686;SDS011;31399;51.176;7.776;2024-03-23T03:19:07;3.08;;;0.80;;
45686;SDS011;31399;51.176;7.776;2024-03-23T03:21:32;2.15;;;0.90;;
45686;SDS011;31399;51.176;7.776;2024-03-23T03:23:58;4.47;;;0.93;;
45686;SDS011;31399;51.176;7.776;2024-03-23T03:26:24;1.35;;;0.73;;
45686;SDS011;31399;51.176;7.776;2024-03-23T03:28:50;3.28;;;0.90;;
45686;SDS011;31399;51.176;7.776;2024-03-23T03:31:16;3.85;;;1.00;;
45686;SDS011;31399;51.176;7.776;2024-03-23T03:33:42;2.47;;;0.85;;
45686;SDS011;31399;51.176;7.776;2024-03-23T03:36:08;3.08;;;0.65;;
45686;SDS011;31399;51.176;7.776;2024-03-23T03:38:34;2.63;;;1.02;;
45686;SDS011;31399;51.176;7.776;2024-03-23T03:41:03;2.50;;;0.98;;
45686;SDS011;31399;51.176;7.776;2024-03-23T03:43:29;11.13;;;1.23;;
45686;SDS011;31399;51.176;7.776;2024-03-23T03:45:56;3.10;;;0.82;;
45686;SDS011;31399;51.176;7.776;2024-03-23T03:48:22;5.65;;;0.85;;
45686;SDS011;31399;51.176;7.776;2024-03-23T03:50:48;6.15;;;1.33;;
45686;SDS011;31399;51.176;7.776;2024-03-23T03:53:14;2.20;;;1.13;;
45686;SDS011;31399;51.176;7.776;2024-03-23T03:55:39;3.92;;;0.75;;
45686;SDS011;31399;51.176;7.776;2024-03-23T03:58:05;7.53;;;1.55;;
45686;SDS011;31399;51.176;7.776;2024-03-23T04:00:31;8.15;;;1.00;;
45686;SDS011;31399;51.176;7.776;2024-03-23T04:02:56;1.42;;;0.73;;
45686;SDS011;31399;51.176;7.776;2024-03-23T04:05:22;4.53;;;0.65;;
45686;SDS011;31399;51.176;7.776;2024-03-23T04:07:48;5.50;;;0.80;;
45686;SDS011;31399;51.176;7.776;2024-03-23T04:10:14;3.17;;;0.90;;
45686;SDS011;31399;51.176;7.776;2024-03-23T04:12:42;5.32;;;0.65;;
45686;SDS011;31399;51.176;7.776;2024-03-23T04:15:09;5.22;;;0.80;;
45686;SDS011;31399;51.176;7.776;2024-03-23T04:17:34;3.22;;;0.70;;
45686;SDS011;31399;51.176;7.776;2024-03-23T04:20:01;4.00;;;0.82;;
45686;SDS011;31399;51.176;7.776;2024-03-23T04:22:27;10.63;;;1.13;;
45686;SDS011;31399;51.176;7.776;2024-03-23T04:24:53;4.70;;;0.50;;
45686;SDS011;31399;51.176;7.776;2024-03-23T04:27:19;4.43;;;0.80;;
45686;SDS011;31399;51.176;7.776;2024-03-23T04:29:48;3.83;;;0.60;;
45686;SDS011;31399;51.176;7.776;2024-03-23T04:32:17;6.38;;;0.73;;
45686;SDS011;31399;51.176;7.776;2024-03-23T04:34:43;6.97;;;1.17;;
45686;SDS011;31399;51.176;7.776;2024-03-23T04:37:09;3.90;;;0.85;;
45686;SDS011;31399;51.176;7.776;2024-03-23T04:39:35;3.97;;;0.80;;
45686;SDS011;31399;51.176;7.776;2024-03-23T04:42:01;5.68;;;1.08;;
45686;SDS011;31399;51.176;7.776;2024-03-23T04:44:28;7.35;;;0.73;;
45686;SDS011;31399;51.176;7.776;2024-03-23T04:46:54;4.38;;;1.00;;
45686;SDS011;31399;51.176;7.776;2024-03-23T04:49:19;8.05;;;1.50;;
45686;SDS011;31399;51.176;7.776;2024-03-23T04:51:45;6.70;;;0.90;;
45686;SDS011;31399;51.176;7.776;2024-03-23T04:54:14;6.43;;;1.10;;
45686;SDS011;31399;51.176;7.776;2024-03-23T04:56:40;5.88;;;0.93;;
45686;SDS011;31399;51.176;7.776;2024-03-23T04:59:06;7.72;;;1.60;;
45686;SDS011;31399;51.176;7.776;2024-03-23T05:01:32;6.70;;;1.25;;
45686;SDS011;31399;51.176;7.776;2024-03-23T05:03:57;8.32;;;1.33;;
45686;SDS011;31399;51.176;7.776;2024-03-23T05:06:26;6.35;;;1.10;;
45686;SDS011;31399;51.176;7.776;2024-03-23T05:08:52;5.80;;;1.17;;
45686;SDS011;31399;51.176;7.776;2024-03-23T05:11:17;8.50;;;1.20;;
45686;SDS011;31399;51.176;7.776;2024-03-23T05:13:43;2.97;;;1.05;;
45686;SDS011;31399;51.176;7.776;2024-03-23T05:16:09;7.30;;;1.30;;
45686;SDS011;31399;51.176;7.776;2024-03-23T05:18:34;9.15;;;0.85;;
45686;SDS011;31399;51.176;7.776;2024-03-23T05:21:00;9.43;;;1.25;;
45686;SDS011;31399;51.176;7.776;2024-03-23T05:23:26;4.50;;;0.98;;
45686;SDS011;31399;51.176;7.776;2024-03-23T05:25:53;7.20;;;1.77;;
45686;SDS011;31399;51.176;7.776;2024-03-23T05:28:19;2.63;;;1.17;;
45686;SDS011;31399;51.176;7.776;2024-03-23T05:30:49;4.85;;;1.48;;
45686;SDS011;31399;51.176;7.776;2024-03-23T05:33:21;4.72;;;1.30;;
45686;SDS011;31399;51.176;7.776;2024-03-23T05:35:47;5.20;;;1.20;;
45686;SDS011;31399;51.176;7.776;2024-03-23T05:38:14;7.53;;;1.40;;
45686;SDS011;31399;51.176;7.776;2024-03-23T05:40:40;8.10;;;1.92;;
45686;SDS011;31399;51.176;7.776;2024-03-23T05:43:06;7.00;;;1.85;;
45686;SDS011;31399;51.176;7.776;2024-03-23T05:45:32;5.18;;;1.88;;
45686;SDS011;31399;51.176;7.776;2024-03-23T05:47:58;6.63;;;1.60;;
45686;SDS011;31399;51.176;7.776;2024-03-23T05:50:23;8.50;;;1.60;;
45686;SDS011;31399;51.176;7.776;2024-03-23T05:52:49;9.02;;;1.70;;
45686;SDS011;31399;51.176;7.776;2024-03-23T05:55:15;8.93;;;2.33;;
45686;SDS011;31399;51.176;7.776;2024-03-23T05:57:40;4.78;;;1.98;;
45686;SDS011;31399;51.176;7.776;2024-03-23T06:00:06;7.88;;;1.75;;
45686;SDS011;31399;51.176;7.776;2024-03-23T06:02:41;9.98;;;2.38;;
45686;SDS011;31399;51.176;7.776;2024-03-23T06:05:10;11.43;;;1.90;;
45686;SDS011;31399;51.176;7.776;2024-03-23T06:07:38;10.80;;;3.35;;
45686;SDS011;31399;51.176;7.776;2024-03-23T06:10:07;16.13;;;3.45;;
45686;SDS011;31399;51.176;7.776;2024-03-23T06:12:33;13.05;;;3.60;;
45686;SDS011;31399;51.176;7.776;2024-03-23T06:14:59;14.43;;;3.10;;
45686;SDS011;31399;51.176;7.776;2024-03-23T06:17:24;12.32;;;3.38;;
45686;SDS011;31399;51.176;7.776;2024-03-23T06:19:50;12.00;;;3.25;;
45686;SDS011;31399;51.176;7.776;2024-03-23T06:22:16;10.00;;;3.40;;
45686;SDS011;31399;51.176;7.776;2024-03-23T06:24:42;15.45;;;4.40;;
45686;SDS011;31399;51.176;7.776;2024-03-23T06:27:09;16.42;;;5.82;;
45686;SDS011;31399;51.176;7.776;2024-03-23T06:29:37;15.05;;;4.72;;
45686;SDS011;31399;51.176;7.776;2024-03-23T06:32:02;21.10;;;6.00;;
45686;SDS011;31399;51.176;7.776;2024-03-23T06:34:29;22.65;;;5.60;;
45686;SDS011;31399;51.176;7.776;2024-03-23T06:36:55;15.02;;;5.65;;
45686;SDS011;31399;51.176;7.776;2024-03-23T06:39:21;18.65;;;7.40;;
45686;SDS011;31399;51.176;7.776;2024-03-23T06:41:53;17.95;;;5.75;;
45686;SDS011;31399;51.176;7.776;2024-03-23T06:44:20;13.93;;;5.22;;
45686;SDS011;31399;51.176;7.776;2024-03-23T06:46:46;14.35;;;4.95;;
45686;SDS011;31399;51.176;7.776;2024-03-23T06:49:14;14.15;;;4.93;;
45686;SDS011;31399;51.176;7.776;2024-03-23T06:51:40;17.55;;;5.28;;
45686;SDS011;31399;51.176;7.776;2024-03-23T06:54:07;8.55;;;3.47;;
45686;SDS011;31399;51.176;7.776;2024-03-23T06:56:33;6.68;;;3.85;;
45686;SDS011;31399;51.176;7.776;2024-03-23T06:58:59;6.53;;;3.28;;
45686;SDS011;31399;51.176;7.776;2024-03-23T07:01:25;11.50;;;3.30;;
45686;SDS011;31399;51.176;7.776;2024-03-23T07:03:51;9.73;;;3.40;;
45686;SDS011;31399;51.176;7.776;2024-03-23T07:06:17;9.98;;;3.60;;
45686;SDS011;31399;51.176;7.776;2024-03-23T07:08:43;8.27;;;3.08;;
45686;SDS011;31399;51.176;7.776;2024-03-23T07:11:09;5.85;;;3.08;;
45686;SDS011;31399;51.176;7.776;2024-03-23T07:13:35;3.97;;;2.42;;
45686;SDS011;31399;51.176;7.776;2024-03-23T07:16:01;8.48;;;2.55;;
45686;SDS011;31399;51.176;7.776;2024-03-23T07:18:26;4.82;;;2.03;;
45686;SDS011;31399;51.176;7.776;2024-03-23T07:20:55;4.82;;;2.08;;
45686;SDS011;31399;51.176;7.776;2024-03-23T07:23:22;5.30;;;1.70;;
45686;SDS011;31399;51.176;7.776;2024-03-23T07:28:44;2.47;;;1.52;;
45686;SDS011;31399;51.176;7.776;2024-03-23T07:31:12;2.67;;;1.25;;
45686;SDS011;31399;51.176;7.776;2024-03-23T07:33:44;3.42;;;1.20;;
45686;SDS011;31399;51.176;7.776;2024-03-23T07:36:11;3.58;;;1.10;;
45686;SDS011;31399;51.176;7.776;2024-03-23T07:38:37;2.30;;;1.08;;
45686;SDS011;31399;51.176;7.776;2024-03-23T07:41:08;5.28;;;2.33;;
45686;SDS011;31399;51.176;7.776;2024-03-23T07:43:35;2.90;;;2.00;;
45686;SDS011;31399;51.176;7.776;2024-03-23T07:46:02;3.88;;;1.50;;
45686;SDS011;31399;51.176;7.776;2024-03-23T07:48:31;4.15;;;2.22;;
45686;SDS011;31399;51.176;7.776;2024-03-23T07:51:04;5.55;;;2.50;;
45686;SDS011;31399;51.176;7.776;2024-03-23T07:53:32;6.30;;;3.55;;
45686;SDS011;31399;51.176;7.776;2024-03-23T07:55:58;11.35;;;2.35;;
45686;SDS011;31399;51.176;7.776;2024-03-23T07:58:26;11.75;;;3.88;;
45686;SDS011;31399;51.176;7.776;2024-03-23T08:00:52;11.57;;;3.38;;
45686;SDS011;31399;51.176;7.776;2024-03-23T08:03:18;9.25;;;3.30;;
45686;SDS011;31399;51.176;7.776;2024-03-23T08:05:44;13.77;;;4.30;;
45686;SDS011;31399;51.176;7.776;2024-03-23T08:08:09;11.57;;;3.28;;
45686;SDS011;31399;51.176;7.776;2024-03-23T08:10:36;11.80;;;3.42;;
45686;SDS011;31399;51.176;7.776;2024-03-23T08:13:10;20.75;;;3.72;;
45686;SDS011;31399;51.176;7.776;2024-03-23T08:43:28;8.15;;;3.35;;
45686;SDS011;31399;51.176;7.776;2024-03-23T08:57:26;10.52;;;3.47;;
45686;SDS011;31399;51.176;7.776;2024-03-23T09:07:47;12.38;;;3.72;;
45686;SDS011;31399;51.176;7.776;2024-03-23T09:39:29;12.63;;;3.17;;
45686;SDS011;31399;51.176;7.776;2024-03-23T09:45:42;8.13;;;3.47;;
45686;SDS011;31399;51.176;7.776;2024-03-23T09:48:10;15.68;;;2.58;;
45686;SDS011;31399;51.176;7.776;2024-03-23T09:50:45;8.40;;;2.90;;
45686;SDS011;31399;51.176;7.776;2024-03-23T09:57:17;12.88;;;2.00;;
45686;SDS011;31399;51.176;7.776;2024-03-23T09:59:46;5.18;;;1.77;;
45686;SDS011;31399;51.176;7.776;2024-03-23T10:02:11;8.32;;;1.35;;
45686;SDS011;31399;51.176;7.776;2024-03-23T10:04:42;4.05;;;1.30;;
45686;SDS011;31399;51.176;7.776;2024-03-23T10:07:20;1.17;;;0.35;;
45686;SDS011;31399;51.176;7.776;2024-03-23T10:12:19;4.35;;;0.30;;
45686;SDS011;31399;51.176;7.776;2024-03-23T10:14:45;3.40;;;0.32;;
45686;SDS011;31399;51.176;7.776;2024-03-23T10:17:15;1.92;;;0.40;;
45686;SDS011;31399;51.176;7.776;2024-03-23T10:19:47;0.75;;;0.30;;
45686;SDS011;31399;51.176;7.776;2024-03-23T10:22:17;2.08;;;0.30;;
45686;SDS011;31399;51.176;7.776;2024-03-23T10:24:44;2.60;;;0.60;;
45686;SDS011;31399;51.176;7.776;2024-03-23T10:27:15;1.08;;;0.47;;
45686;SDS011;31399;51.176;7.776;2024-03-23T10:29:44;6.03;;;0.68;;
45686;SDS011;31399;51.176;7.776;2024-03-23T10:32:13;5.22;;;0.35;;
45686;SDS011;31399;51.176;7.776;2024-03-23T10:34:40;3.50;;;0.63;;
45686;SDS011;31399;51.176;7.776;2024-03-23T10:37:06;14.73;;;1.40;;
45686;SDS011;31399;51.176;7.776;2024-03-23T10:46:09;6.28;;;0.70;;
45686;SDS011;31399;51.176;7.776;2024-03-23T10:48:35;1.98;;;0.50;;
45686;SDS011;31399;51.176;7.776;2024-03-23T10:51:01;40.40;;;1.80;;
45686;SDS011;31399;51.176;7.776;2024-03-23T10:53:27;20.27;;;1.80;;
45686;SDS011;31399;51.176;7.776;2024-03-23T10:59:52;3.00;;;0.98;;
45686;SDS011;31399;51.176;7.776;2024-03-23T11:02:18;2.08;;;0.70;;
45686;SDS011;31399;51.176;7.776;2024-03-23T11:04:44;4.25;;;1.30;;
45686;SDS011;31399;51.176;7.776;2024-03-23T11:07:32;3.47;;;0.90;;
45686;SDS011;31399;51.176;7.776;2024-03-23T11:09:58;4.63;;;1.17;;
45686;SDS011;31399;51.176;7.776;2024-03-23T11:14:55;5.97;;;1.85;;
45686;SDS011;31399;51.176;7.776;2024-03-23T11:17:23;7.15;;;1.55;;
45686;SDS011;31399;51.176;7.776;2024-03-23T11:19:53;4.22;;;1.25;;
45686;SDS011;31399;51.176;7.776;2024-03-23T11:25:24;4.80;;;1.40;;
45686;SDS011;31399;51.176;7.776;2024-03-23T11:27:50;7.53;;;2.00;;
45686;SDS011;31399;51.176;7.776;2024-03-23T11:30:18;6.47;;;1.70;;
45686;SDS011;31399;51.176;7.776;2024-03-23T11:32:47;5.68;;;1.35;;
45686;SDS011;31399;51.176;7.776;2024-03-23T11:38:15;3.22;;;0.65;;
45686;SDS011;31399;51.176;7.776;2024-03-23T11:40:49;6.38;;;1.10;;
45686;SDS011;31399;51.176;7.776;2024-03-23T11:43:16;3.40;;;1.00;;
45686;SDS011;31399;51.176;7.776;2024-03-23T11:48:20;11.27;;;1.00;;
45686;SDS011;31399;51.176;7.776;2024-03-23T11:50:48;7.78;;;1.55;;
45686;SDS011;31399;51.176;7.776;2024-03-23T11:55:51;3.50;;;1.08;;
45686;SDS011;31399;51.176;7.776;2024-03-23T11:58:24;2.67;;;0.88;;
45686;SDS011;31399;51.176;7.776;2024-03-23T12:00:51;3.42;;;0.70;;
45686;SDS011;31399;51.176;7.776;2024-03-23T12:03:18;2.03;;;0.63;;
45686;SDS011;31399;51.176;7.776;2024-03-23T12:05:50;3.55;;;0.88;;
45686;SDS011;31399;51.176;7.776;2024-03-23T12:08:39;6.53;;;1.20;;
45686;SDS011;31399;51.176;7.776;2024-03-23T12:11:05;2.65;;;0.57;;
45686;SDS011;31399;51.176;7.776;2024-03-23T12:13:31;3.22;;;0.50;;
45686;SDS011;31399;51.176;7.776;2024-03-23T12:16:08;1.67;;;0.43;;
45686;SDS011;31399;51.176;7.776;2024-03-23T12:18:46;1.25;;;0.30;;
45686;SDS011;31399;51.176;7.776;2024-03-23T12:21:12;3.08;;;0.40;;
45686;SDS011;31399;51.176;7.776;2024-03-23T12:23:38;0.70;;;0.30;;
45686;SDS011;31399;51.176;7.776;2024-03-23T12:26:04;3.83;;;0.20;;
45686;SDS011;31399;51.176;7.776;2024-03-23T12:28:30;0.68;;;0.32;;
45686;SDS011;31399;51.176;7.776;2024-03-23T12:30:56;0.93;;;0.20;;
45686;SDS011;31399;51.176;7.776;2024-03-23T12:33:21;1.17;;;0.28;;
45686;SDS011;31399;51.176;7.776;2024-03-23T12:35:47;3.08;;;0.25;;
45686;SDS011;31399;51.176;7.776;2024-03-23T12:38:13;2.83;;;0.40;;
45686;SDS011;31399;51.176;7.776;2024-03-23T12:40:39;2.90;;;0.30;;
45686;SDS011;31399;51.176;7.776;2024-03-23T12:43:06;2.35;;;0.40;;
45686;SDS011;31399;51.176;7.776;2024-03-23T12:45:33;4.53;;;0.47;;
45686;SDS011;31399;51.176;7.776;2024-03-23T12:47:58;3.47;;;0.57;;
45686;SDS011;31399;51.176;7.776;2024-03-23T12:50:24;2.78;;;0.30;;
45686;SDS011;31399;51.176;7.776;2024-03-23T12:52:50;2.83;;;0.70;;
45686;SDS011;31399;51.176;7.776;2024-03-23T12:55:15;2.17;;;0.40;;
45686;SDS011;31399;51.176;7.776;2024-03-23T12:57:41;4.18;;;0.60;;
45686;SDS011;31399;51.176;7.776;2024-03-23T13:00:07;1.52;;;0.63;;
45686;SDS011;31399;51.176;7.776;2024-03-23T13:02:37;1.60;;;0.35;;
45686;SDS011;31399;51.176;7.776;2024-03-23T13:05:06;1.35;;;0.20;;
45686;SDS011;31399;51.176;7.776;2024-03-23T13:07:33;1.52;;;0.20;;
45686;SDS011;31399;51.176;7.776;2024-03-23T13:09:59;0.80;;;0.22;;
45686;SDS011;31399;51.176;7.776;2024-03-23T13:12:24;0.63;;;0.20;;
45686;SDS011;31399;51.176;7.776;2024-03-23T13:14:50;2.03;;;0.43;;
45686;SDS011;31399;51.176;7.776;2024-03-23T13:17:15;0.35;;;0.20;;
45686;SDS011;31399;51.176;7.776;2024-03-23T13:19:41;0.93;;;0.20;;
45686;SDS011;31399;51.176;7.776;2024-03-23T13:22:07;2.03;;;0.30;;
45686;SDS011;31399;51.176;7.776;2024-03-23T13:24:33;1.80;;;0.20;;
45686;SDS011;31399;51.176;7.776;2024-03-23T13:26:59;0.70;;;0.20;;
45686;SDS011;31399;51.176;7.776;2024-03-23T13:29:24;3.42;;;0.50;;
45686;SDS011;31399;51.176;7.776;2024-03-23T13:31:50;1.67;;;0.30;;
45686;SDS011;31399;51.176;7.776;2024-03-23T13:34:17;2.85;;;0.43;;
45686;SDS011;31399;51.176;7.776;2024-03-23T13:36:43;1.63;;;0.40;;
45686;SDS011;31399;51.176;7.776;2024-03-23T13:39:12;1.05;;;0.30;;
45686;SDS011;31399;51.176;7.776;2024-03-23T13:41:38;3.80;;;0.40;;
45686;SDS011;31399;51.176;7.776;2024-03-23T13:44:08;1.52;;;0.40;;
45686;SDS011;31399;51.176;7.776;2024-03-23T13:46:37;3.95;;;0.50;;
45686;SDS011;31399;51.176;7.776;2024-03-23T13:49:10;2.85;;;0.75;;
45686;SDS011;31399;51.176;7.776;2024-03-23T13:51:47;1.30;;;0.35;;
45686;SDS011;31399;51.176;7.776;2024-03-23T13:54:13;4.20;;;0.60;;
45686;SDS011;31399;51.176;7.776;2024-03-23T13:56:38;1.10;;;0.40;;
45686;SDS011;31399;51.176;7.776;2024-03-23T13:59:04;1.30;;;0.30;;
45686;SDS011;31399;51.176;7.776;2024-03-23T14:01:30;0.50;;;0.30;;
45686;SDS011;31399;51.176;7.776;2024-03-23T14:03:55;5.85;;;0.30;;
45686;SDS011;31399;51.176;7.776;2024-03-23T14:06:21;3.85;;;0.45;;
45686;SDS011;31399;51.176;7.776;2024-03-23T14:08:49;2.28;;;0.35;;
45686;SDS011;31399;51.176;7.776;2024-03-23T14:11:14;3.15;;;0.55;;
45686;SDS011;31399;51.176;7.776;2024-03-23T14:13:40;1.83;;;0.45;;
45686;SDS011;31399;51.176;7.776;2024-03-23T14:16:06;1.88;;;0.40;;
45686;SDS011;31399;51.176;7.776;2024-03-23T14:18:31;1.58;;;0.65;;
45686;SDS011;31399;51.176;7.776;2024-03-23T14:20:58;4.18;;;0.70;;
45686;SDS011;31399;51.176;7.776;2024-03-23T14:23:25;1.90;;;0.47;;
45686;SDS011;31399;51.176;7.776;2024-03-23T14:25:58;2.05;;;0.40;;
45686;SDS011;31399;51.176;7.776;2024-03-23T14:28:24;2.47;;;0.95;;
45686;SDS011;31399;51.176;7.776;2024-03-23T14:30:54;3.53;;;1.00;;
45686;SDS011;31399;51.176;7.776;2024-03-23T14:35:53;1.60;;;0.35;;
45686;SDS011;31399;51.176;7.776;2024-03-23T14:38:21;1.25;;;0.38;;
45686;SDS011;31399;51.176;7.776;2024-03-23T14:40:46;1.27;;;0.65;;
45686;SDS011;31399;51.176;7.776;2024-03-23T14:43:12;1.55;;;0.25;;
45686;SDS011;31399;51.176;7.776;2024-03-23T14:48:33;2.83;;;0.30;;
45686;SDS011;31399;51.176;7.776;2024-03-23T14:51:00;1.05;;;0.25;;
45686;SDS011;31399;51.176;7.776;2024-03-23T14:53:26;1.30;;;0.20;;
45686;SDS011;31399;51.176;7.776;2024-03-23T14:55:59;0.85;;;0.20;;
45686;SDS011;31399;51.176;7.776;2024-03-23T14:58:26;2.63;;;0.47;;
45686;SDS011;31399;51.176;7.776;2024-03-23T15:00:53;2.00;;;0.50;;
45686;SDS011;31399;51.176;7.776;2024-03-23T15:03:25;4.97;;;1.10;;
45686;SDS011;31399;51.176;7.776;2024-03-23T15:05:58;1.70;;;0.40;;
45686;SDS011;31399;51.176;7.776;2024-03-23T15:08:25;3.47;;;0.40;;
45686;SDS011;31399;51.176;7.776;2024-03-23T15:10:53;2.92;;;0.57;;
45686;SDS011;31399;51.176;7.776;2024-03-23T15:13:18;3.17;;;0.60;;
45686;SDS011;31399;51.176;7.776;2024-03-23T15:15:44;3.65;;;0.60;;
45686;SDS011;31399;51.176;7.776;2024-03-23T15:18:13;2.38;;;0.68;;
45686;SDS011;31399;51.176;7.776;2024-03-23T15:21:00;5.40;;;0.52;;
45686;SDS011;31399;51.176;7.776;2024-03-23T15:23:33;3.42;;;0.43;;
45686;SDS011;31399;51.176;7.776;2024-03-23T15:25:59;3.63;;;1.17;;
45686;SDS011;31399;51.176;7.776;2024-03-23T15:28:26;1.65;;;0.43;;
45686;SDS011;31399;51.176;7.776;2024-03-23T15:31:03;3.15;;;0.90;;
45686;SDS011;31399;51.176;7.776;2024-03-23T15:33:29;2.88;;;0.60;;
45686;SDS011;31399;51.176;7.776;2024-03-23T15:36:00;0.75;;;0.38;;
45686;SDS011;31399;51.176;7.776;2024-03-23T15:38:35;0.93;;;0.40;;
45686;SDS011;31399;51.176;7.776;2024-03-23T15:41:00;3.65;;;0.80;;
45686;SDS011;31399;51.176;7.776;2024-03-23T15:43:26;2.15;;;0.68;;
45686;SDS011;31399;51.176;7.776;2024-03-23T15:45:59;0.88;;;0.52;;
45686;SDS011;31399;51.176;7.776;2024-03-23T15:48:28;1.50;;;0.30;;
45686;SDS011;31399;51.176;7.776;2024-03-23T15:50:55;2.10;;;0.50;;
45686;SDS011;31399;51.176;7.776;2024-03-23T15:53:22;1.20;;;0.80;;
45686;SDS011;31399;51.176;7.776;2024-03-23T15:58:24;3.08;;;0.40;;
45686;SDS011;31399;51.176;7.776;2024-03-23T16:00:57;2.90;;;0.60;;
45686;SDS011;31399;51.176;7.776;2024-03-23T16:03:23;3.20;;;0.52;;
45686;SDS011;31399;51.176;7.776;2024-03-23T16:05:50;2.72;;;0.52;;
45686;SDS011;31399;51.176;7.776;2024-03-23T16:08:16;2.58;;;0.50;;
45686;SDS011;31399;51.176;7.776;2024-03-23T16:10:42;2.42;;;0.70;;
45686;SDS011;31399;51.176;7.776;2024-03-23T16:13:07;1.40;;;0.60;;
45686;SDS011;31399;51.176;7.776;2024-03-23T16:15:33;1.40;;;0.40;;
45686;SDS011;31399;51.176;7.776;2024-03-23T16:17:58;2.95;;;0.50;;
45686;SDS011;31399;51.176;7.776;2024-03-23T16:20:24;2.20;;;0.63;;
45686;SDS011;31399;51.176;7.776;2024-03-23T16:22:50;2.17;;;0.90;;
45686;SDS011;31399;51.176;7.776;2024-03-23T16:25:15;3.72;;;0.40;;
45686;SDS011;31399;51.176;7.776;2024-03-23T16:27:41;1.45;;;0.70;;
45686;SDS011;31399;51.176;7.776;2024-03-23T16:30:07;6.30;;;0.60;;
45686;SDS011;31399;51.176;7.776;2024-03-23T16:32:33;2.88;;;0.55;;
45686;SDS011;31399;51.176;7.776;2024-03-23T16:35:02;0.98;;;0.50;;
45686;SDS011;31399;51.176;7.776;2024-03-23T16:37:29;1.60;;;0.55;;
45686;SDS011;31399;51.176;7.776;2024-03-23T16:39:54;2.92;;;1.08;;
45686;SDS011;31399;51.176;7.776;2024-03-23T16:42:20;1.70;;;0.50;;
45686;SDS011;31399;51.176;7.776;2024-03-23T16:44:46;2.38;;;0.50;;
45686;SDS011;31399;51.176;7.776;2024-03-23T16:47:12;6.80;;;0.90;;
45686;SDS011;31399;51.176;7.776;2024-03-23T16:49:38;3.67;;;0.50;;
45686;SDS011;31399;51.176;7.776;2024-03-23T16:52:04;2.72;;;0.60;;
45686;SDS011;31399;51.176;7.776;2024-03-23T16:54:30;1.08;;;0.60;;
45686;SDS011;31399;51.176;7.776;2024-03-23T16:56:55;3.28;;;0.60;;
45686;SDS011;31399;51.176;7.776;2024-03-23T16:59:21;2.55;;;0.40;;
45686;SDS011;31399;51.176;7.776;2024-03-23T17:01:47;2.00;;;0.60;;
45686;SDS011;31399;51.176;7.776;2024-03-23T17:04:13;0.98;;;0.57;;
45686;SDS011;31399;51.176;7.776;2024-03-23T17:06:38;1.52;;;0.40;;
45686;SDS011;31399;51.176;7.776;2024-03-23T17:09:07;1.17;;;0.52;;
45686;SDS011;31399;51.176;7.776;2024-03-23T17:11:32;4.00;;;0.40;;
45686;SDS011;31399;51.176;7.776;2024-03-23T17:13:58;2.05;;;0.28;;
45686;SDS011;31399;51.176;7.776;2024-03-23T17:16:24;2.42;;;0.80;;
45686;SDS011;31399;51.176;7.776;2024-03-23T17:18:51;5.20;;;0.68;;
45686;SDS011;31399;51.176;7.776;2024-03-23T17:21:18;1.85;;;0.70;;
45686;SDS011;31399;51.176;7.776;2024-03-23T17:23:43;3.03;;;0.50;;
45686;SDS011;31399;51.176;7.776;2024-03-23T17:26:09;4.43;;;0.70;;
45686;SDS011;31399;51.176;7.776;2024-03-23T17:28:35;1.77;;;0.50;;
45686;SDS011;31399;51.176;7.776;2024-03-23T17:31:01;5.50;;;1.40;;
45686;SDS011;31399;51.176;7.776;2024-03-23T17:33:27;3.70;;;0.90;;
45686;SDS011;31399;51.176;7.776;2024-03-23T17:35:53;4.10;;;0.93;;
45686;SDS011;31399;51.176;7.776;2024-03-23T17:38:18;5.20;;;1.20;;